createdAt,value
2018-06-25T00:01:15.854Z,3.57
2018-06-25T00:03:44.414Z,3.80
2018-06-25T00:06:12.642Z,4.10
2018-06-25T00:08:40.861Z,3.97
2018-06-25T00:11:09.089Z,4.50
2018-06-25T00:13:38.346Z,3.67
2018-06-25T00:16:06.298Z,4.40
2018-06-25T00:18:34.565Z,3.90
2018-06-25T00:21:02.774Z,3.97
2018-06-25T00:23:31.022Z,3.40
2018-06-25T00:25:59.315Z,3.77
2018-06-25T00:28:28.556Z,4.10
2018-06-25T00:30:56.774Z,3.80
2018-06-25T00:33:25.015Z,3.80
2018-06-25T00:35:53.227Z,4.23
2018-06-25T00:38:21.438Z,4.00
2018-06-25T00:40:49.667Z,3.50
2018-06-25T00:43:17.899Z,3.30
2018-06-25T00:45:46.126Z,3.50
2018-06-25T00:48:15.121Z,3.73
2018-06-25T00:50:43.073Z,4.50
2018-06-25T00:53:11.283Z,3.37
2018-06-25T00:55:39.504Z,3.23
2018-06-25T00:58:08.749Z,3.30
2018-06-25T01:00:36.982Z,3.30
2018-06-25T01:03:05.203Z,3.90
2018-06-25T01:05:33.471Z,3.50
2018-06-25T01:08:01.432Z,4.10
2018-06-25T01:10:29.642Z,3.40
2018-06-25T01:12:57.882Z,3.50
2018-06-25T01:15:26.101Z,3.33
2018-06-25T01:17:54.371Z,2.97
2018-06-25T01:20:22.779Z,3.40
2018-06-25T01:22:50.978Z,3.27
2018-06-25T01:25:18.950Z,3.30
2018-06-25T01:27:46.909Z,3.30
2018-06-25T01:30:15.143Z,3.77
2018-06-25T01:32:43.351Z,3.13
2018-06-25T01:35:11.575Z,3.57
2018-06-25T01:37:39.769Z,3.17
2018-06-25T01:40:07.982Z,3.20
2018-06-25T01:42:36.190Z,3.17
2018-06-25T01:45:04.626Z,3.30
2018-06-25T01:47:33.883Z,2.93
2018-06-25T01:50:03.142Z,3.30
2018-06-25T01:52:31.365Z,3.20
2018-06-25T01:55:00.594Z,2.83
2018-06-25T01:57:28.569Z,2.83
2018-06-25T01:59:56.798Z,2.77
2018-06-25T02:02:25.036Z,2.97
2018-06-25T02:04:53.264Z,2.53
2018-06-25T02:07:21.486Z,2.67
2018-06-25T02:09:49.699Z,2.83
2018-06-25T02:12:17.922Z,2.80
2018-06-25T02:14:46.142Z,2.70
2018-06-25T02:17:14.387Z,3.47
2018-06-25T02:19:42.630Z,2.77
2018-06-25T02:22:10.581Z,2.73
2018-06-25T02:24:38.807Z,1.90
2018-06-25T02:27:07.027Z,2.53
2018-06-25T02:29:35.262Z,2.60
2018-06-25T02:32:04.504Z,2.23
2018-06-25T02:34:33.722Z,2.50
2018-06-25T02:37:01.938Z,2.23
2018-06-25T02:39:30.166Z,2.60
2018-06-25T02:41:58.413Z,2.07
2018-06-25T02:44:26.635Z,2.07
2018-06-25T02:46:54.882Z,2.20
2018-06-25T02:49:22.847Z,2.23
2018-06-25T02:51:51.066Z,2.10
2018-06-25T02:54:19.270Z,2.50
2018-06-25T02:56:47.634Z,2.20
2018-06-25T03:01:50.594Z,2.00
2018-06-25T03:04:18.840Z,1.90
2018-06-25T03:06:47.078Z,2.20
2018-06-25T03:09:15.289Z,1.93
2018-06-25T03:11:43.519Z,1.80
2018-06-25T03:14:11.751Z,1.93
2018-06-25T03:16:39.720Z,2.00
2018-06-25T03:19:07.707Z,2.00
2018-06-25T03:21:35.964Z,2.00
2018-06-25T03:24:05.181Z,2.00
2018-06-25T03:26:34.434Z,1.70
2018-06-25T03:29:02.699Z,1.80
2018-06-25T03:31:30.914Z,1.83
2018-06-25T03:33:59.117Z,1.67
2018-06-25T03:36:27.390Z,1.77
2018-06-25T03:38:55.615Z,1.80
2018-06-25T03:41:23.977Z,2.47
2018-06-25T03:43:52.176Z,1.40
2018-06-25T03:46:20.422Z,1.70
2018-06-25T03:48:48.646Z,1.80
2018-06-25T03:51:16.886Z,1.50
2018-06-25T03:53:45.859Z,1.90
2018-06-25T03:56:14.055Z,1.50
2018-06-25T03:58:42.051Z,1.90
2018-06-25T04:01:10.285Z,2.13
2018-06-25T04:03:38.513Z,1.90
2018-06-25T04:06:06.839Z,1.67
2018-06-25T04:08:35.051Z,2.10
2018-06-25T04:11:03.294Z,1.63
2018-06-25T04:13:31.502Z,1.83
2018-06-25T04:15:59.746Z,1.43
2018-06-25T04:18:28.006Z,1.53
2018-06-25T04:20:56.234Z,1.90
2018-06-25T04:23:24.458Z,1.80
2018-06-25T04:25:52.706Z,1.63
2018-06-25T04:28:20.913Z,1.50
2018-06-25T04:30:49.269Z,1.90
2018-06-25T04:33:17.326Z,2.27
2018-06-25T04:35:45.534Z,1.83
2018-06-25T04:38:13.494Z,1.60
2018-06-25T04:40:41.708Z,1.77
2018-06-25T04:43:09.960Z,1.57
2018-06-25T04:45:38.170Z,1.77
2018-06-25T04:48:07.396Z,2.10
2018-06-25T04:50:35.669Z,2.00
2018-06-25T04:53:03.823Z,1.80
2018-06-25T04:55:32.043Z,1.77
2018-06-25T04:58:00.271Z,1.83
2018-06-25T05:00:28.525Z,1.60
2018-06-25T05:02:56.749Z,1.83
2018-06-25T05:05:24.938Z,1.80
2018-06-25T05:07:53.137Z,1.70
2018-06-25T05:10:21.383Z,2.30
2018-06-25T05:12:50.569Z,1.80
2018-06-25T05:15:18.810Z,1.83
2018-06-25T05:17:47.031Z,1.40
2018-06-25T05:20:15.294Z,1.73
2018-06-25T05:22:43.498Z,1.90
2018-06-25T05:25:11.702Z,2.00
2018-06-25T05:27:39.934Z,1.47
2018-06-25T05:30:08.170Z,1.77
2018-06-25T05:32:36.389Z,1.50
2018-06-25T05:35:04.627Z,1.57
2018-06-25T05:37:32.917Z,1.30
2018-06-25T05:40:01.136Z,1.90
2018-06-25T05:42:29.402Z,1.77
2018-06-25T05:44:57.637Z,2.10
2018-06-25T05:47:25.874Z,1.70
2018-06-25T05:49:55.190Z,1.67
2018-06-25T05:52:23.397Z,1.53
2018-06-25T05:54:52.747Z,1.70
2018-06-25T05:57:21.110Z,1.70
2018-06-25T05:59:49.351Z,1.70
2018-06-25T06:02:17.614Z,1.70
2018-06-25T06:04:45.649Z,1.60
2018-06-25T06:07:13.912Z,1.50
2018-06-25T06:09:43.966Z,1.37
2018-06-25T06:12:12.254Z,1.90
2018-06-25T06:14:42.725Z,1.77
2018-06-25T06:17:11.688Z,1.80
2018-06-25T06:19:40.786Z,1.43
2018-06-25T06:22:09.905Z,1.57
2018-06-25T06:24:38.190Z,1.37
2018-06-25T06:27:06.491Z,1.50
2018-06-25T06:29:34.719Z,1.70
2018-06-25T06:32:02.944Z,1.87
2018-06-25T06:34:31.138Z,1.83
2018-06-25T06:36:59.378Z,1.80
2018-06-25T06:39:27.599Z,2.53
2018-06-25T06:41:55.838Z,12.50
2018-06-25T06:44:23.795Z,30.17
2018-06-25T06:46:53.175Z,15.47
2018-06-25T06:49:24.763Z,11.60
2018-06-25T06:51:53.005Z,13.30
2018-06-25T06:54:21.243Z,15.60
2018-06-25T06:56:49.473Z,22.43
2018-06-25T06:59:17.707Z,21.77
2018-06-25T07:01:45.910Z,19.87
2018-06-25T07:04:14.182Z,25.40
2018-06-25T07:06:42.430Z,22.27
2018-06-25T07:09:12.410Z,21.20
2018-06-25T07:11:40.485Z,22.87
2018-06-25T07:14:09.351Z,22.80
2018-06-25T07:16:38.575Z,23.87
2018-06-25T07:19:07.027Z,24.10
2018-06-25T07:21:35.366Z,22.27
2018-06-25T07:24:03.588Z,19.60
2018-06-25T07:26:31.550Z,19.30
2018-06-25T07:28:59.776Z,19.43
2018-06-25T07:31:27.990Z,18.00
2018-06-25T07:33:56.256Z,17.83
2018-06-25T07:36:24.458Z,16.87
2018-06-25T07:38:52.719Z,19.63
2018-06-25T07:41:20.930Z,18.30
2018-06-25T07:43:49.154Z,16.50
2018-06-25T07:46:17.367Z,17.33
2018-06-25T07:48:45.609Z,15.20
2018-06-25T07:51:13.822Z,16.90
2018-06-25T07:53:43.115Z,14.90
2018-06-25T07:56:12.363Z,15.03
2018-06-25T07:58:40.626Z,12.77
2018-06-25T08:01:08.821Z,16.40
2018-06-25T08:03:37.079Z,14.47
2018-06-25T08:06:05.285Z,12.23
2018-06-25T08:08:34.559Z,12.70
2018-06-25T08:11:02.786Z,11.60
2018-06-25T08:13:31.026Z,11.20
2018-06-25T08:15:59.246Z,12.77
2018-06-25T08:18:27.479Z,11.87
2018-06-25T08:20:55.444Z,12.20
2018-06-25T08:23:23.671Z,12.23
2018-06-25T08:25:51.877Z,10.20
2018-06-25T08:28:20.114Z,11.03
2018-06-25T08:30:48.337Z,11.47
2018-06-25T08:33:16.290Z,11.20
2018-06-25T08:35:44.514Z,11.17
2018-06-25T08:38:12.742Z,9.87
2018-06-25T08:40:40.992Z,8.67
2018-06-25T08:43:09.232Z,9.40
2018-06-25T08:45:37.439Z,9.03
2018-06-25T08:48:06.359Z,9.97
2018-06-25T08:50:34.622Z,9.23
2018-06-25T08:53:02.902Z,9.90
2018-06-25T08:55:31.127Z,8.10
2018-06-25T08:57:59.342Z,9.33
2018-06-25T09:00:28.625Z,8.87
2018-06-25T09:02:56.906Z,8.30
2018-06-25T09:05:25.078Z,7.50
2018-06-25T09:07:53.342Z,8.00
2018-06-25T09:10:21.558Z,6.80
2018-06-25T09:12:49.506Z,6.50
2018-06-25T09:15:17.820Z,6.57
2018-06-25T09:17:47.058Z,7.60
2018-06-25T09:20:15.298Z,8.33
2018-06-25T09:22:43.518Z,7.70
2018-06-25T09:25:11.746Z,6.87
2018-06-25T09:27:45.430Z,6.60
2018-06-25T09:30:13.542Z,6.57
2018-06-25T09:32:41.769Z,7.03
2018-06-25T09:35:09.760Z,5.40
2018-06-25T09:37:37.958Z,6.27
2018-06-25T09:40:06.709Z,7.20
2018-06-25T09:42:34.963Z,7.23
2018-06-25T09:45:02.910Z,6.47
2018-06-25T09:47:31.147Z,5.70
2018-06-25T09:49:59.394Z,5.77
2018-06-25T09:52:27.618Z,6.00
2018-06-25T09:54:55.969Z,5.07
2018-06-25T09:57:24.147Z,5.87
2018-06-25T09:59:52.354Z,5.77
2018-06-25T10:02:20.567Z,6.53
2018-06-25T10:04:48.810Z,4.63
2018-06-25T10:07:17.069Z,7.10
2018-06-25T10:09:45.310Z,7.07
2018-06-25T10:12:13.573Z,5.60
2018-06-25T10:14:41.929Z,5.67
2018-06-25T10:17:09.885Z,4.90
2018-06-25T10:19:38.291Z,5.63
2018-06-25T10:22:06.539Z,6.07
2018-06-25T10:24:38.760Z,4.90
2018-06-25T10:27:06.955Z,5.67
2018-06-25T10:29:35.174Z,4.70
2018-06-25T10:32:03.415Z,5.80
2018-06-25T10:34:31.803Z,5.70
2018-06-25T10:37:00.031Z,4.40
2018-06-25T10:39:28.278Z,4.60
2018-06-25T10:41:56.524Z,5.27
2018-06-25T10:44:24.772Z,5.07
2018-06-25T10:46:53.021Z,5.57
2018-06-25T10:49:22.277Z,4.40
2018-06-25T10:51:50.511Z,5.20
2018-06-25T10:54:18.754Z,4.20
2018-06-25T10:56:46.980Z,4.77
2018-06-25T10:59:15.179Z,4.53
2018-06-25T11:01:43.142Z,4.43
2018-06-25T11:04:11.400Z,4.10
2018-06-25T11:06:39.660Z,4.20
2018-06-25T11:09:09.868Z,5.13
2018-06-25T11:11:38.142Z,3.83
2018-06-25T11:14:06.383Z,4.37
2018-06-25T11:16:34.618Z,3.97
2018-06-25T11:19:02.851Z,4.30
2018-06-25T11:21:31.090Z,3.90
2018-06-25T11:23:59.077Z,5.27
2018-06-25T11:26:27.314Z,3.73
2018-06-25T11:28:55.514Z,4.23
2018-06-25T11:31:23.780Z,4.30
2018-06-25T11:33:51.986Z,4.80
2018-06-25T11:36:22.472Z,3.60
2018-06-25T11:38:50.714Z,4.20
2018-06-25T11:41:18.966Z,4.03
2018-06-25T11:43:47.173Z,3.80
2018-06-25T11:46:15.403Z,3.30
2018-06-25T11:48:43.609Z,3.50
2018-06-25T11:51:11.829Z,3.70
2018-06-25T11:53:40.042Z,3.80
2018-06-25T11:56:08.274Z,3.93
2018-06-25T11:58:36.230Z,4.00
2018-06-25T12:01:04.201Z,3.80
2018-06-25T12:03:32.432Z,4.23
2018-06-25T12:06:00.638Z,4.30
2018-06-25T12:08:28.605Z,3.70
2018-06-25T12:10:57.831Z,3.80
2018-06-25T12:13:26.054Z,4.20
2018-06-25T12:15:55.273Z,3.67
2018-06-25T12:18:23.246Z,3.37
2018-06-25T12:20:51.431Z,3.57
2018-06-25T12:23:19.995Z,3.70
2018-06-25T12:25:48.222Z,3.30
2018-06-25T12:28:16.426Z,3.40
2018-06-25T12:30:45.837Z,3.47
2018-06-25T12:33:14.078Z,2.93
2018-06-25T12:35:43.310Z,3.23
2018-06-25T12:38:11.506Z,3.03
2018-06-25T12:40:39.469Z,3.27
2018-06-25T12:43:07.750Z,2.57
2018-06-25T12:45:35.946Z,3.83
2018-06-25T12:48:04.166Z,2.80
2018-06-25T12:50:32.446Z,3.17
2018-06-25T12:53:00.673Z,3.03
2018-06-25T12:55:29.114Z,3.40
2018-06-25T12:57:57.069Z,3.50
2018-06-25T13:00:25.286Z,3.30
2018-06-25T13:02:55.756Z,3.83
2018-06-25T13:05:23.982Z,3.10
2018-06-25T13:07:52.302Z,2.53
2018-06-25T13:10:20.514Z,3.00
2018-06-25T13:12:48.473Z,3.30
2018-06-25T13:15:16.697Z,3.00
2018-06-25T13:17:44.947Z,3.27
2018-06-25T13:20:13.179Z,3.77
2018-06-25T13:22:42.432Z,3.33
2018-06-25T13:25:10.618Z,2.63
2018-06-25T13:27:38.843Z,3.43
2018-06-25T13:30:06.778Z,3.57
2018-06-25T13:32:35.021Z,2.73
2018-06-25T13:35:03.265Z,2.90
2018-06-25T13:37:31.197Z,3.53
2018-06-25T13:39:59.429Z,2.70
2018-06-25T13:42:27.778Z,3.00
2018-06-25T13:44:55.989Z,3.03
2018-06-25T13:47:24.205Z,2.70
2018-06-25T13:49:52.429Z,2.33
2018-06-25T13:52:20.655Z,2.63
2018-06-25T13:54:48.905Z,2.93
2018-06-25T13:57:17.078Z,3.33
2018-06-25T13:59:46.310Z,3.50
2018-06-25T14:02:14.538Z,2.77
2018-06-25T14:04:42.757Z,2.23
2018-06-25T14:07:11.005Z,3.23
2018-06-25T14:09:39.504Z,2.87
2018-06-25T14:12:07.742Z,2.73
2018-06-25T14:14:36.008Z,2.40
2018-06-25T14:17:04.452Z,2.60
2018-06-25T14:19:32.652Z,2.90
2018-06-25T14:22:00.870Z,2.97
2018-06-25T14:24:34.610Z,2.63
2018-06-25T14:27:08.135Z,2.53
2018-06-25T14:29:36.462Z,2.47
2018-06-25T14:32:41.866Z,3.00
2018-06-25T14:35:15.616Z,2.80
2018-06-25T14:37:46.652Z,3.10
2018-06-25T14:40:14.958Z,3.37
2018-06-25T14:42:43.110Z,2.97
2018-06-25T14:45:11.403Z,2.90
2018-06-25T14:47:39.619Z,3.00
2018-06-25T14:50:07.851Z,2.37
2018-06-25T14:52:36.104Z,2.47
2018-06-25T14:55:04.345Z,2.90
2018-06-25T14:57:32.588Z,2.37
2018-06-25T15:00:00.859Z,2.60
2018-06-25T15:02:29.510Z,2.40
2018-06-25T15:04:57.741Z,2.40
2018-06-25T15:07:25.947Z,2.37
2018-06-25T15:09:54.189Z,2.57
2018-06-25T15:12:22.435Z,3.20
2018-06-25T15:14:50.653Z,2.27
2018-06-25T15:17:18.943Z,2.80
2018-06-25T15:19:47.166Z,2.80
2018-06-25T15:22:15.394Z,2.70
2018-06-25T15:24:43.615Z,2.30
2018-06-25T15:27:11.988Z,2.80
2018-06-25T15:29:40.222Z,3.57
2018-06-25T15:32:08.467Z,2.60
2018-06-25T15:34:36.671Z,2.50
2018-06-25T15:37:04.924Z,2.10
2018-06-25T15:39:33.159Z,2.43
2018-06-25T15:42:01.393Z,2.27
2018-06-25T15:44:29.634Z,2.67
2018-06-25T15:46:57.879Z,2.27
2018-06-25T15:49:26.159Z,2.37
2018-06-25T15:51:54.378Z,2.30
2018-06-25T15:54:22.607Z,2.50
2018-06-25T15:56:50.837Z,2.47
2018-06-25T15:59:19.080Z,2.40
2018-06-25T16:01:48.321Z,3.17
2018-06-25T16:04:17.555Z,2.17
2018-06-25T16:06:45.771Z,2.53
2018-06-25T16:09:13.982Z,2.03
2018-06-25T16:11:42.212Z,2.07
2018-06-25T16:14:10.426Z,2.37
2018-06-25T16:16:38.662Z,2.27
2018-06-25T16:19:07.000Z,1.90
2018-06-25T16:21:35.211Z,2.30
2018-06-25T16:24:03.418Z,2.80
2018-06-25T16:26:31.642Z,2.27
2018-06-25T16:29:00.874Z,2.20
2018-06-25T16:31:29.094Z,2.20
2018-06-25T16:33:58.342Z,2.60
2018-06-25T16:36:26.574Z,2.13
2018-06-25T16:38:54.814Z,2.07
2018-06-25T16:41:24.070Z,2.40
2018-06-25T16:43:52.282Z,2.07
2018-06-25T16:46:20.509Z,2.10
2018-06-25T16:48:48.749Z,1.67
2018-06-25T16:51:17.982Z,1.83
2018-06-25T16:53:46.210Z,2.20
2018-06-25T16:56:14.441Z,2.20
2018-06-25T16:58:42.663Z,2.00
2018-06-25T17:01:10.875Z,1.90
2018-06-25T17:03:39.130Z,1.93
2018-06-25T17:06:07.373Z,1.50
2018-06-25T17:08:35.629Z,2.10
2018-06-25T17:11:03.854Z,2.23
2018-06-25T17:13:32.083Z,2.17
2018-06-25T17:16:00.323Z,1.83
2018-06-25T17:18:28.571Z,2.70
2018-06-25T17:20:56.806Z,2.33
2018-06-25T17:23:25.027Z,2.13
2018-06-25T17:25:53.258Z,2.50
2018-06-25T17:28:21.487Z,2.00
2018-06-25T17:30:49.738Z,2.00
2018-06-25T17:33:17.969Z,2.00
2018-06-25T17:35:46.222Z,2.30
2018-06-25T17:38:14.474Z,2.13
2018-06-25T17:40:42.716Z,2.37
2018-06-25T17:43:11.047Z,1.97
2018-06-25T17:45:40.495Z,2.60
2018-06-25T17:48:08.838Z,2.37
2018-06-25T17:50:37.187Z,1.90
2018-06-25T17:53:05.477Z,2.80
2018-06-25T17:55:33.712Z,2.00
2018-06-25T17:58:01.952Z,1.60
2018-06-25T18:00:30.166Z,2.23
2018-06-25T18:02:58.505Z,2.20
2018-06-25T18:05:27.900Z,3.33
2018-06-25T18:07:55.886Z,2.20
2018-06-25T18:10:24.120Z,2.80
2018-06-25T18:12:53.378Z,1.93
2018-06-25T18:15:21.662Z,3.00
2018-06-25T18:17:49.923Z,2.10
2018-06-25T18:20:18.202Z,1.90
2018-06-25T18:22:46.483Z,1.90
2018-06-25T18:25:14.726Z,1.60
2018-06-25T18:27:42.978Z,2.10
2018-06-25T18:30:11.226Z,2.03
2018-06-25T18:32:39.489Z,2.10
2018-06-25T18:35:08.019Z,2.00
2018-06-25T18:37:36.037Z,1.93
2018-06-25T18:40:04.498Z,1.70
2018-06-25T18:42:32.778Z,1.50
2018-06-25T18:45:01.008Z,1.90
2018-06-25T18:47:29.287Z,1.70
2018-06-25T18:49:57.527Z,1.60
2018-06-25T18:52:26.144Z,1.77
2018-06-25T18:54:54.606Z,1.77
2018-06-25T18:57:23.025Z,1.90
2018-06-25T18:59:52.295Z,1.53
2018-06-25T19:02:20.771Z,2.07
2018-06-25T19:04:49.448Z,2.30
2018-06-25T19:07:18.930Z,2.13
2018-06-25T19:09:47.692Z,1.80
2018-06-25T19:12:16.965Z,1.50
2018-06-25T19:14:46.223Z,2.07
2018-06-25T19:17:15.317Z,1.63
2018-06-25T19:19:43.698Z,1.50
2018-06-25T19:22:12.216Z,2.10
2018-06-25T19:24:40.462Z,1.73
2018-06-25T19:27:08.797Z,1.60
2018-06-25T19:29:37.891Z,1.80
2018-06-25T19:32:06.130Z,1.83
2018-06-25T19:34:34.498Z,1.70
2018-06-25T19:37:02.722Z,2.10
2018-06-25T19:39:30.930Z,2.10
2018-06-25T19:41:59.220Z,1.67
2018-06-25T19:44:27.459Z,1.70
2018-06-25T19:46:55.685Z,1.70
2018-06-25T19:49:23.890Z,1.90
2018-06-25T19:51:52.496Z,1.73
2018-06-25T19:54:20.825Z,2.40
2018-06-25T19:56:49.228Z,1.77
2018-06-25T19:59:17.445Z,2.00
2018-06-25T20:01:45.683Z,2.10
2018-06-25T20:04:14.906Z,1.80
2018-06-25T20:06:43.158Z,2.17
2018-06-25T20:09:12.702Z,2.00
2018-06-25T20:11:41.209Z,1.53
2018-06-25T20:14:09.570Z,2.37
2018-06-25T20:16:38.713Z,1.70
2018-06-25T20:19:06.993Z,2.00
2018-06-25T20:21:35.277Z,2.07
2018-06-25T20:24:04.569Z,1.77
2018-06-25T20:26:33.840Z,2.30
2018-06-25T20:29:02.058Z,1.73
2018-06-25T20:31:31.342Z,2.30
2018-06-25T20:33:59.574Z,2.40
2018-06-25T20:36:27.810Z,2.20
2018-06-25T20:38:56.051Z,1.73
2018-06-25T20:41:24.291Z,1.80
2018-06-25T20:43:52.535Z,1.83
2018-06-25T20:46:21.731Z,1.77
2018-06-25T20:48:49.980Z,1.40
2018-06-25T20:51:18.210Z,1.83
2018-06-25T20:53:46.496Z,1.73
2018-06-25T20:56:14.702Z,1.70
2018-06-25T20:58:42.920Z,1.40
2018-06-25T21:01:11.126Z,1.50
2018-06-25T21:03:39.346Z,1.80
2018-06-25T21:06:08.478Z,2.00
2018-06-25T21:08:36.720Z,1.23
2018-06-25T21:11:04.662Z,1.80
2018-06-25T21:13:33.914Z,2.00
2018-06-25T21:16:03.157Z,1.67
2018-06-25T21:18:31.459Z,1.73
2018-06-25T21:20:59.710Z,1.67
2018-06-25T21:23:27.932Z,1.77
2018-06-25T21:25:56.166Z,1.87
2018-06-25T21:28:24.376Z,1.60
2018-06-25T21:30:52.646Z,2.00
2018-06-25T21:33:20.610Z,2.10
2018-06-25T21:35:48.890Z,2.00
2018-06-25T21:38:17.058Z,1.77
2018-06-25T21:40:45.279Z,1.70
2018-06-25T21:43:13.502Z,1.80
2018-06-25T21:45:41.718Z,1.70
2018-06-25T21:48:09.953Z,1.60
2018-06-25T21:50:37.898Z,1.37
2018-06-25T21:53:06.219Z,2.00
2018-06-25T21:55:34.443Z,2.33
2018-06-25T21:58:02.690Z,1.70
2018-06-25T22:00:42.386Z,2.00
2018-06-25T22:03:11.642Z,1.77
2018-06-25T22:05:41.817Z,1.63
2018-06-25T22:08:10.088Z,1.47
2018-06-25T22:10:38.373Z,1.60
2018-06-25T22:13:06.713Z,1.53
2018-06-25T22:15:35.126Z,1.90
2018-06-25T22:18:03.462Z,2.03
2018-06-25T22:20:31.730Z,1.73
2018-06-25T22:23:00.145Z,2.03
2018-06-25T22:25:29.378Z,1.50
2018-06-25T22:27:57.899Z,1.53
2018-06-25T22:30:26.105Z,1.70
2018-06-25T22:32:54.461Z,1.73
2018-06-25T22:35:22.869Z,2.00
2018-06-25T22:37:51.141Z,1.87
2018-06-25T22:40:20.442Z,1.80
2018-06-25T22:42:50.014Z,1.73
2018-06-25T22:45:18.346Z,1.30
2018-06-25T22:47:46.576Z,1.73
2018-06-25T22:50:14.782Z,2.57
2018-06-25T22:52:43.121Z,1.47
2018-06-25T22:55:12.259Z,2.00
2018-06-25T22:57:41.598Z,1.57
2018-06-25T23:00:10.859Z,1.80
2018-06-25T23:02:40.162Z,1.83
2018-06-25T23:05:09.487Z,1.50
2018-06-25T23:07:38.791Z,1.43
2018-06-25T23:10:08.200Z,1.37
2018-06-25T23:12:37.413Z,1.40
2018-06-25T23:15:07.331Z,1.20
2018-06-25T23:17:36.328Z,1.57
2018-06-25T23:20:05.639Z,1.50
2018-06-25T23:22:34.932Z,1.80
2018-06-25T23:25:04.108Z,1.50
2018-06-25T23:27:32.403Z,1.33
2018-06-25T23:30:00.610Z,1.77
2018-06-25T23:32:29.858Z,2.13
2018-06-25T23:34:58.074Z,1.80
2018-06-25T23:37:26.298Z,1.53
2018-06-25T23:39:54.254Z,2.03
2018-06-25T23:42:22.490Z,2.33
2018-06-25T23:44:50.707Z,2.00
2018-06-25T23:47:18.909Z,2.57
2018-06-25T23:49:47.145Z,3.20
2018-06-25T23:52:15.381Z,3.03
2018-06-25T23:54:43.627Z,2.87
2018-06-25T23:57:11.830Z,2.90
2018-06-25T23:59:40.030Z,3.47
